Kimper, KY

02:57 PM EDT em 24 de Maio de 2015 (GMT -0400)
Carroll | | Change Station
CLOSE
Current Station
Aeroporto
Location: Jackson,
Altitude: 1381 ft
Estações Meteorológicas Próximas

Elev 1381 ft 37.59 °N, 83.31 °W | Updated 1 hour ago

Céu Limpo
Céu Limpo
79 °F
Aparente 79 °F
N
7
Vento Variável Vento de Variável

Hoje
Máxima -- | Mínima -- °F
--% Possibilidade de Precip.
Ontem
Máxima -- | Mínima -- °F
Precip. -- pol
6:13 AM 8:38 PM
Quarto crescente, 41% visible
Pressão 30.26 pol
Visibilidade 10.0 milhas
Nuvens Céu Limpo
Ponto de Orvalho 53 °F
Humidade 40%
Chuva 0.00 pol
Altura de Neve Não disponível
UV 12 em vez de 12
Pólen 7.90 em vez de 12
Qualidade do Ar Não disponível
Flu Activity Sporadic
METAR KJKL 241753Z AUTO VRB06KT 10SM CLR 26/12 A3029 RMK AO2 SLP245 T02610117 10267 20167 58018

More Conditions Fewer Conditions

Pressão 30.26 pol
Visibilidade 10.0 milhas
Nuvens Céu Limpo
Ponto de Orvalho 53 °F
Humidade 40%
Chuva 0.00 pol
Altura de Neve Não disponível
UV 12 em vez de 12
Pólen 7.90 em vez de 12
Qualidade do Ar Não disponível
Flu Activity Sporadic
METAR KJKL 241753Z AUTO VRB06KT 10SM CLR 26/12 A3029 RMK AO2 SLP245 T02610117 10267 20167 58018

More Conditions Fewer Conditions

10-Day Weather Forecast

Almanac

Astronomia

May. 24, 2015 Nascer Pôr
Hora atual
Crepúsculo civil
Crepúsculo náutico
Crepúsculo astronómico
Lua
Comprimento da luz visível
Duração do Dia
Tomorrow will be .
, % of the Moon is Illuminated

Extremos de Hoje

situação na parte mais alta situação na parte mais baixa

Community

WunderPhotos

Upload Photos

1,823,821 fotografias inseridas!

WunderBlogs® & News

Nearby

Qualidade do Ar

  Qualidade do Ar Índice da Q.A. Poluente
Not available.

Altura da Neve

Estação altura Altitude

Actividade Sísmisca

Cidade Distância Mag. Hora & Data
Mínima magnitude apresentada é 2.5.

Temperaturas das Águas Costeiras

Local Temperatura

Stations

Estações Meteorológicas Próximas

Localização da Estação Temp. Sensação Térmica Ponto de Orvalho Humidade Vento Precip. Elev Actualizado Tipo